sensor_id;sensor_type;location;lat;lon;timestamp;P1;durP1;ratioP1;P2;durP2;ratioP2
33150;SDS011;19508;42.578;23.416;2023-08-08T00:00:19;2.65;;;1.60;;
33150;SDS011;19508;42.578;23.416;2023-08-08T00:02:45;2.28;;;1.45;;
33150;SDS011;19508;42.578;23.416;2023-08-08T00:05:11;1.52;;;1.42;;
33150;SDS011;19508;42.578;23.416;2023-08-08T00:07:37;1.83;;;1.60;;
33150;SDS011;19508;42.578;23.416;2023-08-08T00:10:04;1.90;;;1.65;;
33150;SDS011;19508;42.578;23.416;2023-08-08T00:12:30;2.38;;;1.75;;
33150;SDS011;19508;42.578;23.416;2023-08-08T00:14:55;1.77;;;1.60;;
33150;SDS011;19508;42.578;23.416;2023-08-08T00:17:21;3.78;;;1.70;;
33150;SDS011;19508;42.578;23.416;2023-08-08T00:23:09;2.25;;;1.70;;
33150;SDS011;19508;42.578;23.416;2023-08-08T00:25:35;5.72;;;1.60;;
33150;SDS011;19508;42.578;23.416;2023-08-08T00:28:01;2.95;;;1.60;;
33150;SDS011;19508;42.578;23.416;2023-08-08T00:30:26;2.55;;;1.80;;
33150;SDS011;19508;42.578;23.416;2023-08-08T00:32:52;2.70;;;1.60;;
33150;SDS011;19508;42.578;23.416;2023-08-08T00:35:17;2.20;;;1.85;;
33150;SDS011;19508;42.578;23.416;2023-08-08T00:37:43;3.30;;;1.75;;
33150;SDS011;19508;42.578;23.416;2023-08-08T00:40:08;2.08;;;1.88;;
33150;SDS011;19508;42.578;23.416;2023-08-08T00:42:34;3.17;;;1.92;;
33150;SDS011;19508;42.578;23.416;2023-08-08T00:45:00;15.80;;;1.90;;
33150;SDS011;19508;42.578;23.416;2023-08-08T00:47:30;2.38;;;1.60;;
33150;SDS011;19508;42.578;23.416;2023-08-08T00:49:58;2.83;;;1.83;;
33150;SDS011;19508;42.578;23.416;2023-08-08T00:52:26;1.70;;;1.60;;
33150;SDS011;19508;42.578;23.416;2023-08-08T00:54:52;2.08;;;1.63;;
33150;SDS011;19508;42.578;23.416;2023-08-08T00:57:18;1.60;;;1.50;;
33150;SDS011;19508;42.578;23.416;2023-08-08T00:59:45;2.17;;;1.77;;
33150;SDS011;19508;42.578;23.416;2023-08-08T01:02:17;4.25;;;1.73;;
33150;SDS011;19508;42.578;23.416;2023-08-08T01:04:42;2.63;;;1.60;;
33150;SDS011;19508;42.578;23.416;2023-08-08T01:07:18;2.75;;;1.90;;
33150;SDS011;19508;42.578;23.416;2023-08-08T01:16:01;2.67;;;1.80;;
33150;SDS011;19508;42.578;23.416;2023-08-08T01:18:33;3.20;;;1.88;;
33150;SDS011;19508;42.578;23.416;2023-08-08T01:21:00;2.30;;;1.90;;
33150;SDS011;19508;42.578;23.416;2023-08-08T01:27:01;3.03;;;2.27;;
33150;SDS011;19508;42.578;23.416;2023-08-08T01:29:27;2.00;;;1.80;;
33150;SDS011;19508;42.578;23.416;2023-08-08T01:31:53;5.95;;;2.38;;
33150;SDS011;19508;42.578;23.416;2023-08-08T01:34:18;5.78;;;2.50;;
33150;SDS011;19508;42.578;23.416;2023-08-08T01:39:49;2.58;;;2.38;;
33150;SDS011;19508;42.578;23.416;2023-08-08T01:42:15;2.90;;;2.08;;
33150;SDS011;19508;42.578;23.416;2023-08-08T01:44:46;3.10;;;2.17;;
33150;SDS011;19508;42.578;23.416;2023-08-08T01:47:13;2.75;;;2.47;;
33150;SDS011;19508;42.578;23.416;2023-08-08T01:49:40;2.30;;;1.98;;
33150;SDS011;19508;42.578;23.416;2023-08-08T01:52:06;2.40;;;2.15;;
33150;SDS011;19508;42.578;23.416;2023-08-08T01:54:32;2.08;;;1.83;;
33150;SDS011;19508;42.578;23.416;2023-08-08T01:56:57;2.95;;;2.00;;
33150;SDS011;19508;42.578;23.416;2023-08-08T01:59:23;2.38;;;2.00;;
33150;SDS011;19508;42.578;23.416;2023-08-08T02:01:48;2.88;;;2.15;;
33150;SDS011;19508;42.578;23.416;2023-08-08T02:04:13;2.65;;;2.10;;
33150;SDS011;19508;42.578;23.416;2023-08-08T02:06:39;2.55;;;2.00;;
33150;SDS011;19508;42.578;23.416;2023-08-08T02:09:04;4.13;;;2.40;;
33150;SDS011;19508;42.578;23.416;2023-08-08T02:11:30;3.95;;;2.58;;
33150;SDS011;19508;42.578;23.416;2023-08-08T02:13:56;2.85;;;2.55;;
33150;SDS011;19508;42.578;23.416;2023-08-08T02:16:21;2.72;;;2.40;;
33150;SDS011;19508;42.578;23.416;2023-08-08T02:18:47;2.88;;;2.40;;
33150;SDS011;19508;42.578;23.416;2023-08-08T02:21:12;5.18;;;3.15;;
33150;SDS011;19508;42.578;23.416;2023-08-08T02:23:37;3.58;;;2.50;;
33150;SDS011;19508;42.578;23.416;2023-08-08T02:26:03;3.83;;;2.90;;
33150;SDS011;19508;42.578;23.416;2023-08-08T02:28:28;3.00;;;2.33;;
33150;SDS011;19508;42.578;23.416;2023-08-08T02:30:54;2.78;;;2.42;;
33150;SDS011;19508;42.578;23.416;2023-08-08T02:33:20;3.53;;;2.58;;
33150;SDS011;19508;42.578;23.416;2023-08-08T02:35:45;3.80;;;3.03;;
33150;SDS011;19508;42.578;23.416;2023-08-08T02:38:10;4.13;;;3.35;;
33150;SDS011;19508;42.578;23.416;2023-08-08T02:40:36;5.82;;;3.65;;
33150;SDS011;19508;42.578;23.416;2023-08-08T02:43:01;3.92;;;3.28;;
33150;SDS011;19508;42.578;23.416;2023-08-08T02:45:27;5.05;;;3.05;;
33150;SDS011;19508;42.578;23.416;2023-08-08T02:47:52;6.43;;;2.92;;
33150;SDS011;19508;42.578;23.416;2023-08-08T02:50:17;3.55;;;3.17;;
33150;SDS011;19508;42.578;23.416;2023-08-08T02:52:43;5.68;;;3.25;;
33150;SDS011;19508;42.578;23.416;2023-08-08T02:55:08;5.68;;;3.17;;
33150;SDS011;19508;42.578;23.416;2023-08-08T02:57:34;4.20;;;3.30;;
33150;SDS011;19508;42.578;23.416;2023-08-08T02:59:59;8.40;;;3.60;;
33150;SDS011;19508;42.578;23.416;2023-08-08T03:02:25;5.00;;;3.67;;
33150;SDS011;19508;42.578;23.416;2023-08-08T03:04:50;7.78;;;3.60;;
33150;SDS011;19508;42.578;23.416;2023-08-08T03:07:16;3.80;;;3.38;;
33150;SDS011;19508;42.578;23.416;2023-08-08T03:09:41;6.35;;;3.58;;
33150;SDS011;19508;42.578;23.416;2023-08-08T03:12:07;5.03;;;4.05;;
33150;SDS011;19508;42.578;23.416;2023-08-08T03:14:33;6.80;;;3.72;;
33150;SDS011;19508;42.578;23.416;2023-08-08T03:16:59;11.15;;;4.03;;
33150;SDS011;19508;42.578;23.416;2023-08-08T03:19:24;24.20;;;5.45;;
33150;SDS011;19508;42.578;23.416;2023-08-08T03:21:50;13.55;;;4.53;;
33150;SDS011;19508;42.578;23.416;2023-08-08T03:24:15;43.28;;;7.25;;
33150;SDS011;19508;42.578;23.416;2023-08-08T03:26:40;25.95;;;5.80;;
33150;SDS011;19508;42.578;23.416;2023-08-08T03:29:06;31.30;;;7.15;;
33150;SDS011;19508;42.578;23.416;2023-08-08T03:31:35;27.60;;;7.50;;
33150;SDS011;19508;42.578;23.416;2023-08-08T03:34:00;53.17;;;8.77;;
33150;SDS011;19508;42.578;23.416;2023-08-08T03:36:25;34.92;;;7.28;;
33150;SDS011;19508;42.578;23.416;2023-08-08T03:38:51;11.10;;;6.00;;
33150;SDS011;19508;42.578;23.416;2023-08-08T03:41:16;8.02;;;5.82;;
33150;SDS011;19508;42.578;23.416;2023-08-08T03:43:42;12.75;;;5.50;;
33150;SDS011;19508;42.578;23.416;2023-08-08T03:46:07;6.68;;;5.28;;
33150;SDS011;19508;42.578;23.416;2023-08-08T03:48:33;6.35;;;5.15;;
33150;SDS011;19508;42.578;23.416;2023-08-08T03:50:59;6.10;;;5.32;;
33150;SDS011;19508;42.578;23.416;2023-08-08T03:53:25;5.68;;;5.03;;
33150;SDS011;19508;42.578;23.416;2023-08-08T03:55:50;10.32;;;5.40;;
33150;SDS011;19508;42.578;23.416;2023-08-08T03:58:16;6.10;;;5.50;;
33150;SDS011;19508;42.578;23.416;2023-08-08T04:00:42;5.80;;;5.20;;
33150;SDS011;19508;42.578;23.416;2023-08-08T04:03:12;9.35;;;5.43;;
33150;SDS011;19508;42.578;23.416;2023-08-08T04:05:40;6.85;;;5.10;;
33150;SDS011;19508;42.578;23.416;2023-08-08T04:08:06;5.35;;;4.80;;
33150;SDS011;19508;42.578;23.416;2023-08-08T04:10:32;6.05;;;4.63;;
33150;SDS011;19508;42.578;23.416;2023-08-08T04:12:58;9.23;;;4.88;;
33150;SDS011;19508;42.578;23.416;2023-08-08T04:15:26;5.50;;;5.00;;
33150;SDS011;19508;42.578;23.416;2023-08-08T04:17:55;5.75;;;5.10;;
33150;SDS011;19508;42.578;23.416;2023-08-08T04:20:20;5.65;;;4.40;;
33150;SDS011;19508;42.578;23.416;2023-08-08T04:22:46;10.65;;;5.10;;
33150;SDS011;19508;42.578;23.416;2023-08-08T04:25:12;7.15;;;4.82;;
33150;SDS011;19508;42.578;23.416;2023-08-08T04:27:37;7.70;;;5.53;;
33150;SDS011;19508;42.578;23.416;2023-08-08T04:30:04;5.95;;;5.20;;
33150;SDS011;19508;42.578;23.416;2023-08-08T04:32:30;5.90;;;5.30;;
33150;SDS011;19508;42.578;23.416;2023-08-08T04:34:56;5.68;;;4.80;;
33150;SDS011;19508;42.578;23.416;2023-08-08T04:37:21;6.22;;;5.10;;
33150;SDS011;19508;42.578;23.416;2023-08-08T04:39:47;6.32;;;5.40;;
33150;SDS011;19508;42.578;23.416;2023-08-08T04:42:14;9.15;;;5.22;;
33150;SDS011;19508;42.578;23.416;2023-08-08T04:44:39;5.22;;;4.72;;
33150;SDS011;19508;42.578;23.416;2023-08-08T04:47:05;7.70;;;5.03;;
33150;SDS011;19508;42.578;23.416;2023-08-08T04:49:36;6.72;;;4.70;;
33150;SDS011;19508;42.578;23.416;2023-08-08T04:52:02;8.20;;;5.07;;
33150;SDS011;19508;42.578;23.416;2023-08-08T04:54:28;5.47;;;4.88;;
33150;SDS011;19508;42.578;23.416;2023-08-08T04:56:54;5.07;;;4.57;;
33150;SDS011;19508;42.578;23.416;2023-08-08T04:59:21;7.35;;;5.40;;
33150;SDS011;19508;42.578;23.416;2023-08-08T05:01:54;8.35;;;4.00;;
33150;SDS011;19508;42.578;23.416;2023-08-08T05:04:19;4.03;;;3.63;;
33150;SDS011;19508;42.578;23.416;2023-08-08T05:06:54;6.22;;;3.88;;
33150;SDS011;19508;42.578;23.416;2023-08-08T05:09:23;5.05;;;4.18;;
33150;SDS011;19508;42.578;23.416;2023-08-08T05:11:51;4.57;;;3.65;;
33150;SDS011;19508;42.578;23.416;2023-08-08T05:14:19;5.95;;;3.72;;
33150;SDS011;19508;42.578;23.416;2023-08-08T05:16:44;3.67;;;3.33;;
33150;SDS011;19508;42.578;23.416;2023-08-08T05:19:13;7.97;;;3.83;;
33150;SDS011;19508;42.578;23.416;2023-08-08T05:21:38;5.68;;;4.28;;
33150;SDS011;19508;42.578;23.416;2023-08-08T05:24:04;4.78;;;3.60;;
33150;SDS011;19508;42.578;23.416;2023-08-08T05:26:30;9.35;;;3.70;;
33150;SDS011;19508;42.578;23.416;2023-08-08T05:28:56;7.13;;;3.33;;
33150;SDS011;19508;42.578;23.416;2023-08-08T05:31:21;4.47;;;3.22;;
33150;SDS011;19508;42.578;23.416;2023-08-08T05:33:48;8.50;;;3.30;;
33150;SDS011;19508;42.578;23.416;2023-08-08T05:36:14;3.92;;;2.50;;
33150;SDS011;19508;42.578;23.416;2023-08-08T05:38:39;5.70;;;2.38;;
33150;SDS011;19508;42.578;23.416;2023-08-08T05:41:06;5.82;;;2.67;;
33150;SDS011;19508;42.578;23.416;2023-08-08T05:43:32;2.05;;;1.95;;
33150;SDS011;19508;42.578;23.416;2023-08-08T05:45:57;2.42;;;1.88;;
33150;SDS011;19508;42.578;23.416;2023-08-08T05:48:22;2.97;;;1.88;;
33150;SDS011;19508;42.578;23.416;2023-08-08T05:50:48;4.93;;;2.10;;
33150;SDS011;19508;42.578;23.416;2023-08-08T05:53:13;3.75;;;2.17;;
33150;SDS011;19508;42.578;23.416;2023-08-08T05:55:40;3.92;;;2.20;;
33150;SDS011;19508;42.578;23.416;2023-08-08T05:58:07;5.38;;;2.08;;
33150;SDS011;19508;42.578;23.416;2023-08-08T06:00:33;3.80;;;2.28;;
33150;SDS011;19508;42.578;23.416;2023-08-08T06:03:01;3.53;;;1.77;;
33150;SDS011;19508;42.578;23.416;2023-08-08T06:05:26;5.10;;;2.30;;
33150;SDS011;19508;42.578;23.416;2023-08-08T06:07:53;2.63;;;2.10;;
33150;SDS011;19508;42.578;23.416;2023-08-08T06:10:20;4.88;;;1.88;;
33150;SDS011;19508;42.578;23.416;2023-08-08T06:12:46;3.33;;;2.00;;
33150;SDS011;19508;42.578;23.416;2023-08-08T06:15:11;4.55;;;2.30;;
33150;SDS011;19508;42.578;23.416;2023-08-08T06:17:36;2.97;;;2.67;;
33150;SDS011;19508;42.578;23.416;2023-08-08T06:20:02;4.45;;;3.45;;
33150;SDS011;19508;42.578;23.416;2023-08-08T06:22:28;4.07;;;3.35;;
33150;SDS011;19508;42.578;23.416;2023-08-08T06:24:53;4.10;;;3.50;;
33150;SDS011;19508;42.578;23.416;2023-08-08T06:27:19;5.57;;;4.13;;
33150;SDS011;19508;42.578;23.416;2023-08-08T06:29:44;6.50;;;2.95;;
33150;SDS011;19508;42.578;23.416;2023-08-08T06:32:10;3.42;;;3.00;;
33150;SDS011;19508;42.578;23.416;2023-08-08T06:34:35;3.15;;;2.55;;
33150;SDS011;19508;42.578;23.416;2023-08-08T06:37:01;3.60;;;2.63;;
33150;SDS011;19508;42.578;23.416;2023-08-08T06:39:26;4.25;;;2.38;;
33150;SDS011;19508;42.578;23.416;2023-08-08T06:41:52;9.98;;;2.30;;
33150;SDS011;19508;42.578;23.416;2023-08-08T06:44:17;2.13;;;1.90;;
33150;SDS011;19508;42.578;23.416;2023-08-08T06:46:43;2.05;;;1.35;;
33150;SDS011;19508;42.578;23.416;2023-08-08T06:49:08;1.10;;;1.00;;
33150;SDS011;19508;42.578;23.416;2023-08-08T06:51:34;10.60;;;1.15;;
33150;SDS011;19508;42.578;23.416;2023-08-08T06:54:01;4.20;;;1.00;;
33150;SDS011;19508;42.578;23.416;2023-08-08T06:56:26;1.10;;;1.00;;
33150;SDS011;19508;42.578;23.416;2023-08-08T06:58:52;1.88;;;1.00;;
33150;SDS011;19508;42.578;23.416;2023-08-08T07:01:18;2.15;;;0.93;;
33150;SDS011;19508;42.578;23.416;2023-08-08T07:03:44;2.15;;;1.05;;
33150;SDS011;19508;42.578;23.416;2023-08-08T07:06:09;5.15;;;1.20;;
33150;SDS011;19508;42.578;23.416;2023-08-08T07:08:35;1.10;;;1.00;;
33150;SDS011;19508;42.578;23.416;2023-08-08T07:11:02;1.85;;;1.02;;
33150;SDS011;19508;42.578;23.416;2023-08-08T07:13:27;1.52;;;1.05;;
33150;SDS011;19508;42.578;23.416;2023-08-08T07:15:53;2.15;;;0.98;;
33150;SDS011;19508;42.578;23.416;2023-08-08T07:18:18;1.60;;;0.80;;
33150;SDS011;19508;42.578;23.416;2023-08-08T07:20:46;1.67;;;1.17;;
33150;SDS011;19508;42.578;23.416;2023-08-08T07:23:12;6.70;;;1.08;;
33150;SDS011;19508;42.578;23.416;2023-08-08T07:25:37;3.53;;;1.17;;
33150;SDS011;19508;42.578;23.416;2023-08-08T07:28:02;1.40;;;1.20;;
33150;SDS011;19508;42.578;23.416;2023-08-08T07:30:28;1.90;;;1.15;;
33150;SDS011;19508;42.578;23.416;2023-08-08T07:32:53;1.75;;;1.23;;
33150;SDS011;19508;42.578;23.416;2023-08-08T07:35:19;1.98;;;1.00;;
33150;SDS011;19508;42.578;23.416;2023-08-08T07:37:44;2.90;;;1.00;;
33150;SDS011;19508;42.578;23.416;2023-08-08T07:40:16;3.20;;;1.00;;
33150;SDS011;19508;42.578;23.416;2023-08-08T07:42:43;0.95;;;0.90;;
33150;SDS011;19508;42.578;23.416;2023-08-08T07:45:09;3.60;;;1.00;;
33150;SDS011;19508;42.578;23.416;2023-08-08T07:47:35;2.03;;;1.23;;
33150;SDS011;19508;42.578;23.416;2023-08-08T07:50:00;2.45;;;1.17;;
33150;SDS011;19508;42.578;23.416;2023-08-08T07:52:26;1.65;;;0.88;;
33150;SDS011;19508;42.578;23.416;2023-08-08T07:54:51;0.60;;;0.60;;
33150;SDS011;19508;42.578;23.416;2023-08-08T07:57:17;0.77;;;0.70;;
33150;SDS011;19508;42.578;23.416;2023-08-08T07:59:42;1.17;;;0.90;;
33150;SDS011;19508;42.578;23.416;2023-08-08T08:02:08;3.65;;;0.82;;
33150;SDS011;19508;42.578;23.416;2023-08-08T08:04:33;3.40;;;0.77;;
33150;SDS011;19508;42.578;23.416;2023-08-08T08:06:59;1.45;;;0.68;;
33150;SDS011;19508;42.578;23.416;2023-08-08T08:09:25;2.15;;;0.85;;
33150;SDS011;19508;42.578;23.416;2023-08-08T08:11:50;0.75;;;0.70;;
33150;SDS011;19508;42.578;23.416;2023-08-08T08:14:16;0.63;;;0.60;;
33150;SDS011;19508;42.578;23.416;2023-08-08T08:16:41;1.10;;;0.63;;
33150;SDS011;19508;42.578;23.416;2023-08-08T08:19:06;1.10;;;0.75;;
33150;SDS011;19508;42.578;23.416;2023-08-08T08:21:32;1.33;;;0.60;;
33150;SDS011;19508;42.578;23.416;2023-08-08T08:23:57;1.75;;;0.70;;
33150;SDS011;19508;42.578;23.416;2023-08-08T08:26:22;1.40;;;0.70;;
33150;SDS011;19508;42.578;23.416;2023-08-08T08:28:48;10.32;;;0.85;;
33150;SDS011;19508;42.578;23.416;2023-08-08T08:31:13;0.88;;;0.88;;
33150;SDS011;19508;42.578;23.416;2023-08-08T08:33:39;1.23;;;0.57;;
33150;SDS011;19508;42.578;23.416;2023-08-08T08:36:04;4.35;;;0.75;;
33150;SDS011;19508;42.578;23.416;2023-08-08T08:38:30;1.98;;;0.68;;
33150;SDS011;19508;42.578;23.416;2023-08-08T08:40:57;0.80;;;0.80;;
33150;SDS011;19508;42.578;23.416;2023-08-08T08:43:23;2.42;;;0.90;;
33150;SDS011;19508;42.578;23.416;2023-08-08T08:45:52;1.08;;;0.70;;
33150;SDS011;19508;42.578;23.416;2023-08-08T08:48:19;1.27;;;0.77;;
33150;SDS011;19508;42.578;23.416;2023-08-08T08:50:47;0.98;;;0.90;;
33150;SDS011;19508;42.578;23.416;2023-08-08T08:53:14;1.25;;;0.70;;
33150;SDS011;19508;42.578;23.416;2023-08-08T08:55:40;4.90;;;0.93;;
33150;SDS011;19508;42.578;23.416;2023-08-08T08:58:06;3.70;;;1.20;;
33150;SDS011;19508;42.578;23.416;2023-08-08T09:00:32;1.67;;;1.10;;
33150;SDS011;19508;42.578;23.416;2023-08-08T09:02:58;4.28;;;1.20;;
33150;SDS011;19508;42.578;23.416;2023-08-08T09:05:24;1.88;;;1.20;;
33150;SDS011;19508;42.578;23.416;2023-08-08T09:07:51;3.25;;;1.20;;
33150;SDS011;19508;42.578;23.416;2023-08-08T09:10:17;2.35;;;1.13;;
33150;SDS011;19508;42.578;23.416;2023-08-08T09:12:44;1.30;;;1.20;;
33150;SDS011;19508;42.578;23.416;2023-08-08T09:15:10;2.47;;;1.38;;
33150;SDS011;19508;42.578;23.416;2023-08-08T09:17:40;6.05;;;1.50;;
33150;SDS011;19508;42.578;23.416;2023-08-08T09:20:06;4.63;;;1.33;;
33150;SDS011;19508;42.578;23.416;2023-08-08T09:22:33;3.72;;;1.38;;
33150;SDS011;19508;42.578;23.416;2023-08-08T09:24:58;4.35;;;1.27;;
33150;SDS011;19508;42.578;23.416;2023-08-08T09:27:24;4.07;;;1.45;;
33150;SDS011;19508;42.578;23.416;2023-08-08T09:29:49;2.67;;;1.65;;
33150;SDS011;19508;42.578;23.416;2023-08-08T09:32:15;8.32;;;1.27;;
33150;SDS011;19508;42.578;23.416;2023-08-08T09:34:42;2.13;;;1.20;;
33150;SDS011;19508;42.578;23.416;2023-08-08T09:37:09;3.08;;;1.45;;
33150;SDS011;19508;42.578;23.416;2023-08-08T09:39:35;1.42;;;1.20;;
33150;SDS011;19508;42.578;23.416;2023-08-08T09:42:02;1.70;;;1.08;;
33150;SDS011;19508;42.578;23.416;2023-08-08T09:44:29;2.03;;;1.00;;
33150;SDS011;19508;42.578;23.416;2023-08-08T09:46:56;0.90;;;0.85;;
33150;SDS011;19508;42.578;23.416;2023-08-08T09:49:22;1.70;;;1.10;;
33150;SDS011;19508;42.578;23.416;2023-08-08T09:51:48;2.33;;;1.10;;
33150;SDS011;19508;42.578;23.416;2023-08-08T09:54:14;1.20;;;1.00;;
33150;SDS011;19508;42.578;23.416;2023-08-08T09:56:40;1.30;;;1.17;;
33150;SDS011;19508;42.578;23.416;2023-08-08T09:59:06;1.20;;;1.10;;
33150;SDS011;19508;42.578;23.416;2023-08-08T10:01:34;3.97;;;1.02;;
33150;SDS011;19508;42.578;23.416;2023-08-08T10:03:59;5.45;;;1.35;;
33150;SDS011;19508;42.578;23.416;2023-08-08T10:06:28;0.90;;;0.90;;
33150;SDS011;19508;42.578;23.416;2023-08-08T10:08:53;1.95;;;0.90;;
33150;SDS011;19508;42.578;23.416;2023-08-08T10:11:20;1.38;;;1.05;;
33150;SDS011;19508;42.578;23.416;2023-08-08T10:13:49;1.35;;;0.85;;
33150;SDS011;19508;42.578;23.416;2023-08-08T10:16:16;1.88;;;0.90;;
33150;SDS011;19508;42.578;23.416;2023-08-08T10:18:42;6.20;;;1.30;;
33150;SDS011;19508;42.578;23.416;2023-08-08T10:21:08;2.83;;;1.10;;
33150;SDS011;19508;42.578;23.416;2023-08-08T10:23:36;1.10;;;1.00;;
33150;SDS011;19508;42.578;23.416;2023-08-08T10:26:02;1.15;;;0.98;;
33150;SDS011;19508;42.578;23.416;2023-08-08T10:28:28;0.90;;;0.90;;
33150;SDS011;19508;42.578;23.416;2023-08-08T10:30:57;3.47;;;1.38;;
33150;SDS011;19508;42.578;23.416;2023-08-08T10:35:54;0.70;;;0.70;;
33150;SDS011;19508;42.578;23.416;2023-08-08T10:38:25;0.88;;;0.68;;
33150;SDS011;19508;42.578;23.416;2023-08-08T10:40:58;3.67;;;1.00;;
33150;SDS011;19508;42.578;23.416;2023-08-08T10:43:25;2.95;;;0.90;;
33150;SDS011;19508;42.578;23.416;2023-08-08T10:45:57;2.40;;;0.90;;
33150;SDS011;19508;42.578;23.416;2023-08-08T10:48:25;1.00;;;0.90;;
33150;SDS011;19508;42.578;23.416;2023-08-08T10:50:51;2.63;;;1.00;;
33150;SDS011;19508;42.578;23.416;2023-08-08T10:53:22;4.13;;;0.85;;
33150;SDS011;19508;42.578;23.416;2023-08-08T10:55:56;1.00;;;0.80;;
33150;SDS011;19508;42.578;23.416;2023-08-08T10:58:22;1.00;;;0.90;;
33150;SDS011;19508;42.578;23.416;2023-08-08T11:00:47;0.90;;;0.82;;
33150;SDS011;19508;42.578;23.416;2023-08-08T11:03:15;0.70;;;0.70;;
33150;SDS011;19508;42.578;23.416;2023-08-08T11:05:40;3.75;;;0.90;;
33150;SDS011;19508;42.578;23.416;2023-08-08T11:08:09;1.40;;;0.90;;
33150;SDS011;19508;42.578;23.416;2023-08-08T11:10:38;1.30;;;0.73;;
33150;SDS011;19508;42.578;23.416;2023-08-08T11:13:05;2.25;;;0.80;;
33150;SDS011;19508;42.578;23.416;2023-08-08T11:15:32;6.20;;;1.08;;
33150;SDS011;19508;42.578;23.416;2023-08-08T11:17:59;7.88;;;0.93;;
33150;SDS011;19508;42.578;23.416;2023-08-08T11:20:28;1.20;;;0.90;;
33150;SDS011;19508;42.578;23.416;2023-08-08T11:22:55;0.77;;;0.65;;
33150;SDS011;19508;42.578;23.416;2023-08-08T11:25:22;1.85;;;0.75;;
33150;SDS011;19508;42.578;23.416;2023-08-08T11:27:51;1.92;;;0.98;;
33150;SDS011;19508;42.578;23.416;2023-08-08T11:30:18;2.22;;;0.70;;
33150;SDS011;19508;42.578;23.416;2023-08-08T11:32:44;1.15;;;1.05;;
33150;SDS011;19508;42.578;23.416;2023-08-08T11:35:21;0.88;;;0.88;;
33150;SDS011;19508;42.578;23.416;2023-08-08T11:37:48;1.02;;;0.70;;
33150;SDS011;19508;42.578;23.416;2023-08-08T11:40:15;0.90;;;0.70;;
33150;SDS011;19508;42.578;23.416;2023-08-08T11:42:41;1.05;;;0.70;;
33150;SDS011;19508;42.578;23.416;2023-08-08T11:45:13;7.30;;;0.80;;
33150;SDS011;19508;42.578;23.416;2023-08-08T11:47:39;0.90;;;0.90;;
33150;SDS011;19508;42.578;23.416;2023-08-08T11:50:06;3.65;;;0.80;;
33150;SDS011;19508;42.578;23.416;2023-08-08T11:52:33;5.05;;;1.25;;
33150;SDS011;19508;42.578;23.416;2023-08-08T11:55:00;1.08;;;0.90;;
33150;SDS011;19508;42.578;23.416;2023-08-08T11:57:26;1.65;;;0.80;;
33150;SDS011;19508;42.578;23.416;2023-08-08T11:59:56;1.92;;;0.75;;
33150;SDS011;19508;42.578;23.416;2023-08-08T12:02:22;4.03;;;1.02;;
33150;SDS011;19508;42.578;23.416;2023-08-08T12:04:48;4.93;;;0.88;;
33150;SDS011;19508;42.578;23.416;2023-08-08T12:07:14;1.17;;;0.80;;
33150;SDS011;19508;42.578;23.416;2023-08-08T12:09:39;0.80;;;0.80;;
33150;SDS011;19508;42.578;23.416;2023-08-08T12:12:05;1.10;;;0.98;;
33150;SDS011;19508;42.578;23.416;2023-08-08T12:14:37;0.95;;;0.90;;
33150;SDS011;19508;42.578;23.416;2023-08-08T12:17:03;1.05;;;0.95;;
33150;SDS011;19508;42.578;23.416;2023-08-08T12:19:29;0.70;;;0.70;;
33150;SDS011;19508;42.578;23.416;2023-08-08T12:21:55;1.08;;;0.93;;
33150;SDS011;19508;42.578;23.416;2023-08-08T12:24:20;1.13;;;1.02;;
33150;SDS011;19508;42.578;23.416;2023-08-08T12:26:46;1.52;;;0.88;;
33150;SDS011;19508;42.578;23.416;2023-08-08T12:29:12;3.45;;;1.20;;
33150;SDS011;19508;42.578;23.416;2023-08-08T12:31:40;2.58;;;0.80;;
33150;SDS011;19508;42.578;23.416;2023-08-08T12:34:05;3.33;;;0.90;;
33150;SDS011;19508;42.578;23.416;2023-08-08T12:36:31;2.15;;;0.82;;
33150;SDS011;19508;42.578;23.416;2023-08-08T12:38:56;1.67;;;0.80;;
33150;SDS011;19508;42.578;23.416;2023-08-08T12:41:22;0.70;;;0.70;;
33150;SDS011;19508;42.578;23.416;2023-08-08T12:43:48;0.82;;;0.70;;
33150;SDS011;19508;42.578;23.416;2023-08-08T12:46:14;1.60;;;0.80;;
33150;SDS011;19508;42.578;23.416;2023-08-08T12:48:40;1.35;;;1.10;;
33150;SDS011;19508;42.578;23.416;2023-08-08T12:51:05;1.17;;;0.70;;
33150;SDS011;19508;42.578;23.416;2023-08-08T12:53:32;1.00;;;0.70;;
33150;SDS011;19508;42.578;23.416;2023-08-08T12:55:58;4.35;;;1.00;;
33150;SDS011;19508;42.578;23.416;2023-08-08T12:58:23;3.20;;;0.60;;
33150;SDS011;19508;42.578;23.416;2023-08-08T13:00:49;2.47;;;0.82;;
33150;SDS011;19508;42.578;23.416;2023-08-08T13:03:14;0.82;;;0.73;;
33150;SDS011;19508;42.578;23.416;2023-08-08T13:05:39;2.75;;;0.55;;
33150;SDS011;19508;42.578;23.416;2023-08-08T13:08:05;5.03;;;0.63;;
33150;SDS011;19508;42.578;23.416;2023-08-08T13:10:30;1.65;;;0.50;;
33150;SDS011;19508;42.578;23.416;2023-08-08T13:12:56;3.15;;;0.68;;
33150;SDS011;19508;42.578;23.416;2023-08-08T13:15:22;4.30;;;0.70;;
33150;SDS011;19508;42.578;23.416;2023-08-08T13:17:47;2.20;;;0.70;;
33150;SDS011;19508;42.578;23.416;2023-08-08T13:20:12;8.75;;;0.57;;
33150;SDS011;19508;42.578;23.416;2023-08-08T13:22:38;0.80;;;0.80;;
33150;SDS011;19508;42.578;23.416;2023-08-08T13:25:04;6.47;;;0.80;;
33150;SDS011;19508;42.578;23.416;2023-08-08T13:27:30;1.73;;;0.80;;
33150;SDS011;19508;42.578;23.416;2023-08-08T13:29:57;0.82;;;0.77;;
33150;SDS011;19508;42.578;23.416;2023-08-08T13:32:23;4.78;;;0.95;;
33150;SDS011;19508;42.578;23.416;2023-08-08T13:34:48;1.00;;;0.88;;
33150;SDS011;19508;42.578;23.416;2023-08-08T13:37:13;3.85;;;1.00;;
33150;SDS011;19508;42.578;23.416;2023-08-08T13:39:40;3.60;;;1.00;;
33150;SDS011;19508;42.578;23.416;2023-08-08T13:42:06;1.70;;;1.00;;
33150;SDS011;19508;42.578;23.416;2023-08-08T13:44:33;1.15;;;1.00;;
33150;SDS011;19508;42.578;23.416;2023-08-08T13:46:59;3.83;;;1.00;;
33150;SDS011;19508;42.578;23.416;2023-08-08T13:49:24;2.13;;;1.10;;
33150;SDS011;19508;42.578;23.416;2023-08-08T13:51:52;1.45;;;1.00;;
33150;SDS011;19508;42.578;23.416;2023-08-08T13:54:18;12.48;;;3.78;;
33150;SDS011;19508;42.578;23.416;2023-08-08T13:56:44;3.08;;;1.83;;
33150;SDS011;19508;42.578;23.416;2023-08-08T13:59:09;4.63;;;1.20;;
33150;SDS011;19508;42.578;23.416;2023-08-08T14:01:35;3.97;;;1.10;;
33150;SDS011;19508;42.578;23.416;2023-08-08T14:04:01;2.10;;;0.88;;
33150;SDS011;19508;42.578;23.416;2023-08-08T14:06:26;1.05;;;0.98;;
33150;SDS011;19508;42.578;23.416;2023-08-08T14:08:52;8.60;;;1.17;;
33150;SDS011;19508;42.578;23.416;2023-08-08T14:11:17;3.88;;;0.95;;
33150;SDS011;19508;42.578;23.416;2023-08-08T14:13:43;1.15;;;1.05;;
33150;SDS011;19508;42.578;23.416;2023-08-08T14:16:09;1.23;;;1.02;;
33150;SDS011;19508;42.578;23.416;2023-08-08T14:18:34;2.45;;;1.10;;
33150;SDS011;19508;42.578;23.416;2023-08-08T14:20:59;4.80;;;1.05;;
33150;SDS011;19508;42.578;23.416;2023-08-08T14:23:27;3.90;;;1.20;;
33150;SDS011;19508;42.578;23.416;2023-08-08T14:25:52;1.38;;;1.02;;
33150;SDS011;19508;42.578;23.416;2023-08-08T14:28:18;4.13;;;1.00;;
33150;SDS011;19508;42.578;23.416;2023-08-08T14:30:43;2.80;;;1.08;;
33150;SDS011;19508;42.578;23.416;2023-08-08T14:33:09;3.08;;;1.58;;
33150;SDS011;19508;42.578;23.416;2023-08-08T14:35:34;1.70;;;1.48;;
33150;SDS011;19508;42.578;23.416;2023-08-08T14:37:59;2.92;;;1.05;;
33150;SDS011;19508;42.578;23.416;2023-08-08T14:40:25;1.92;;;1.30;;
33150;SDS011;19508;42.578;23.416;2023-08-08T14:42:50;7.05;;;1.65;;
33150;SDS011;19508;42.578;23.416;2023-08-08T14:45:16;6.25;;;1.60;;